Аэропорт: Шымкент. Шымкент

ICAO: UAII

METAR:
2021-04-21 20:30:00
UAII 212030Z 09004MPS 9999 SCT050CB 06/02 Q1024 R28/0///70 NOSIG RMK QFE730/0974
METAR:
2021-04-21 17:07:00
TAF UAII 211707Z 2118/2218 05006G11MPS 5000 BR BKN030CB TX16/2210Z TN02/2201Z TEMPO 2118/2121 02005MPS 3100 SCT011 TEMPO 2121/2203 08005MPS 0500 FG VV002 BECMG 2203/2204 7000 NSW SCT030 TEMPO 2206/2218 01008G14MPS SCT033